Maersk Lirquen — VRKB8 — position and weather

sailwx.info

Track history (hours):
 
Tides and Currents Weather Stations Pressure Air Temp Water Temp Dewpoint Dewpoint Depression Visibility Wind Speed Wind Dir Waves Ship Positions

Maersk Lirquen

Last reported at 2014-Dec-19 15:08 UTC. Time now 2014-Dec-20 22:17 UTC.
Position S 27°54' W 048°18'.

Length 300 m; draft 9.8 m.

Type: Cargo ship. MMSI: 477423500.

Date/timePositionNaut miles runAvg speedWind from/ knotsBaromVisibWave heightAir tempDewpointWater temp
2014-Dec-19 15:08S 27°54' W 048°18'814.9
2014-Dec-19 14:33S 27°46' W 048°16'1514.8
2014-Dec-19 13:33S 27°31' W 048°16'1515.0
2014-Dec-19 12:33S 27°16' W 048°16'1313.3
2014-Dec-19 11:33S 27°04' W 048°21'14 0.5
2014-Dec-18 08:05S 26°54' W 048°32'  
2014-Dec-15 21:10S 24°11' W 046°25'610.0
2014-Dec-15 20:33S 24°05' W 046°23'8 8.4
2014-Dec-15 19:33S 23°59' W 046°17'5 3.6
2014-Dec-15 18:12S 23°55' W 046°21'0 0.0
2014-Dec-15 16:30S 23°55' W 046°21'0 0.0
2014-Dec-15 15:18S 23°55' W 046°21'0 0.0
2014-Dec-15 12:06S 23°55' W 046°21'0 0.0
2014-Dec-15 09:30S 23°55' W 046°21'0 0.0
2014-Dec-15 08:30S 23°55' W 046°21'0 0.0
2014-Dec-15 06:24S 23°55' W 046°21'0 0.0
2014-Dec-15 05:18S 23°55' W 046°21'0 0.0
2014-Dec-15 03:33S 23°55' W 046°21'4 3.6
2014-Dec-15 02:34S 23°58' W 046°18'7 7.2
2014-Dec-15 01:34S 24°04' W 046°21'7 6.9
2014-Dec-15 00:33S 24°11' W 046°24'1 1.2
2014-Dec-14 23:23S 24°11' W 046°22'2015.3
2014-Dec-14 22:04S 24°15' W 046°01'21818.7
2014-Dec-14 10:23S 23°15' W 042°11'  
Track history (hours):
 
Tides and Currents Weather Stations Pressure Air Temp Water Temp Dewpoint Dewpoint Depression Visibility Wind Speed Wind Dir Waves Ship Positions

Maersk Lirquen

Last reported at 2014-Dec-19 15:08 UTC. Time now 2014-Dec-20 22:17 UTC.
Position S 27°54' W 048°18'.

Length 300 m; draft 9.8 m.

Type: Cargo ship. MMSI: 477423500.

Date/timePositionNaut miles runAvg speedWind from/ knotsBaromVisibWave heightAir tempDewpointWater temp
2014-Dec-19 15:08S 27°54' W 048°18'814.9
2014-Dec-19 14:33S 27°46' W 048°16'1514.8
2014-Dec-19 13:33S 27°31' W 048°16'1515.0
2014-Dec-19 12:33S 27°16' W 048°16'1313.3
2014-Dec-19 11:33S 27°04' W 048°21'14 0.5
2014-Dec-18 08:05S 26°54' W 048°32'  
2014-Dec-15 21:10S 24°11' W 046°25'610.0
2014-Dec-15 20:33S 24°05' W 046°23'8 8.4
2014-Dec-15 19:33S 23°59' W 046°17'5 3.6
2014-Dec-15 18:12S 23°55' W 046°21'0 0.0
2014-Dec-15 16:30S 23°55' W 046°21'0 0.0
2014-Dec-15 15:18S 23°55' W 046°21'0 0.0
2014-Dec-15 12:06S 23°55' W 046°21'0 0.0
2014-Dec-15 09:30S 23°55' W 046°21'0 0.0
2014-Dec-15 08:30S 23°55' W 046°21'0 0.0
2014-Dec-15 06:24S 23°55' W 046°21'0 0.0
2014-Dec-15 05:18S 23°55' W 046°21'0 0.0
2014-Dec-15 03:33S 23°55' W 046°21'4 3.6
2014-Dec-15 02:34S 23°58' W 046°18'7 7.2
2014-Dec-15 01:34S 24°04' W 046°21'7 6.9
2014-Dec-15 00:33S 24°11' W 046°24'1 1.2
2014-Dec-14 23:23S 24°11' W 046°22'2015.3
2014-Dec-14 22:04S 24°15' W 046°01'21818.7
2014-Dec-14 10:23S 23°15' W 042°11'  

Dump ship's entire track history